createdAt,value
2018-06-03T00:00:15.681Z,4.00
2018-06-03T00:01:15.700Z,4.00
2018-06-03T00:02:15.667Z,4.00
2018-06-03T00:03:15.661Z,4.00
2018-06-03T00:04:15.656Z,4.00
2018-06-03T00:05:15.673Z,4.00
2018-06-03T00:06:15.643Z,4.00
2018-06-03T00:07:15.638Z,4.00
2018-06-03T00:08:15.655Z,4.00
2018-06-03T00:09:15.641Z,4.00
2018-06-03T00:10:15.614Z,4.00
2018-06-03T00:11:15.608Z,4.00
2018-06-03T00:12:15.601Z,4.00
2018-06-03T00:13:15.596Z,4.00
2018-06-03T00:14:15.593Z,4.00
2018-06-03T00:15:15.581Z,4.00
2018-06-03T00:16:15.574Z,4.00
2018-06-03T00:17:15.569Z,4.00
2018-06-03T00:18:15.560Z,4.00
2018-06-03T00:19:15.554Z,4.00
2018-06-03T00:20:15.548Z,4.00
2018-06-03T00:21:15.541Z,4.00
2018-06-03T00:22:15.535Z,4.00
2018-06-03T00:23:15.528Z,4.00
2018-06-03T00:24:15.521Z,4.00
2018-06-03T00:25:15.516Z,4.00
2018-06-03T00:26:15.546Z,4.00
2018-06-03T00:27:15.500Z,4.00
2018-06-03T00:28:15.494Z,4.00
2018-06-03T00:29:15.491Z,4.00
2018-06-03T00:30:15.481Z,4.00
2018-06-03T00:31:15.474Z,4.00
2018-06-03T00:32:15.468Z,4.00
2018-06-03T00:33:15.461Z,4.00
2018-06-03T00:34:15.454Z,4.00
2018-06-03T00:35:15.448Z,4.00
2018-06-03T00:36:15.441Z,4.00
2018-06-03T00:37:15.437Z,4.00
2018-06-03T00:38:15.428Z,4.00
2018-06-03T00:39:15.422Z,4.00
2018-06-03T00:40:15.414Z,4.00
2018-06-03T00:41:15.407Z,4.00
2018-06-03T00:42:15.399Z,4.00
2018-06-03T00:43:15.393Z,4.00
2018-06-03T00:44:15.387Z,4.00
2018-06-03T00:45:15.380Z,4.00
2018-06-03T00:46:15.574Z,4.00
2018-06-03T00:47:15.365Z,4.00
2018-06-03T00:48:15.359Z,4.00
2018-06-03T00:49:15.357Z,4.00
2018-06-03T00:50:15.379Z,4.00
2018-06-03T00:51:15.339Z,4.00
2018-06-03T00:52:15.333Z,4.00
2018-06-03T00:53:15.352Z,4.00
2018-06-03T00:54:15.318Z,4.00
2018-06-03T00:55:15.312Z,4.00
2018-06-03T00:56:15.306Z,4.00
2018-06-03T00:57:15.299Z,4.00
2018-06-03T00:58:15.295Z,4.00
2018-06-03T00:59:15.284Z,4.00
2018-06-03T01:00:15.279Z,4.00
2018-06-03T01:01:15.273Z,4.00
2018-06-03T01:02:15.264Z,4.00
2018-06-03T01:03:15.257Z,4.00
2018-06-03T01:04:15.251Z,4.00
2018-06-03T01:05:15.244Z,4.00
2018-06-03T01:06:15.237Z,4.00
2018-06-03T01:07:15.230Z,4.00
2018-06-03T01:08:15.224Z,4.00
2018-06-03T01:09:15.250Z,4.00
2018-06-03T01:10:15.209Z,4.00
2018-06-03T01:11:15.203Z,4.00
2018-06-03T01:12:15.197Z,4.00
2018-06-03T01:13:15.189Z,4.00
2018-06-03T01:14:15.185Z,4.00
2018-06-03T01:15:15.175Z,4.00
2018-06-03T01:16:15.168Z,4.00
2018-06-03T01:17:15.165Z,4.00
2018-06-03T01:18:15.154Z,4.00
2018-06-03T01:19:15.147Z,4.00
2018-06-03T01:20:15.145Z,4.00
2018-06-03T01:21:15.136Z,4.00
2018-06-03T01:22:15.128Z,4.00
2018-06-03T01:23:15.119Z,4.00
2018-06-03T01:24:15.113Z,4.00
2018-06-03T01:25:15.107Z,4.00
2018-06-03T01:26:15.098Z,4.00
2018-06-03T01:27:15.096Z,4.00
2018-06-03T01:28:15.085Z,4.00
2018-06-03T01:29:15.076Z,4.00
2018-06-03T01:30:15.070Z,4.00
2018-06-03T01:31:15.063Z,4.00
2018-06-03T01:32:15.054Z,4.00
2018-06-03T01:33:15.049Z,4.00
2018-06-03T01:34:15.041Z,4.00
2018-06-03T01:35:15.034Z,4.00
2018-06-03T01:36:15.027Z,4.00
2018-06-03T01:37:15.020Z,4.00
2018-06-03T01:38:15.011Z,4.00
2018-06-03T01:39:15.005Z,4.00
2018-06-03T01:40:14.997Z,4.00
2018-06-03T01:41:14.993Z,4.00
2018-06-03T01:42:14.982Z,4.00
2018-06-03T01:43:14.977Z,4.00
2018-06-03T01:44:14.969Z,4.00
2018-06-03T01:45:14.962Z,4.00
2018-06-03T01:46:15.153Z,4.00
2018-06-03T01:47:14.946Z,4.00
2018-06-03T01:48:14.939Z,4.00
2018-06-03T01:49:14.932Z,4.00
2018-06-03T01:50:14.924Z,4.00
2018-06-03T01:51:14.918Z,4.00
2018-06-03T01:52:14.909Z,4.00
2018-06-03T01:53:14.901Z,4.00
2018-06-03T01:54:14.894Z,4.00
2018-06-03T01:55:14.887Z,4.00
2018-06-03T01:56:14.879Z,4.00
2018-06-03T01:57:14.872Z,4.00
2018-06-03T01:58:14.864Z,4.00
2018-06-03T01:59:14.860Z,4.00
2018-06-03T02:00:14.849Z,4.00
2018-06-03T02:01:14.843Z,4.00
2018-06-03T02:02:14.834Z,4.00
2018-06-03T02:03:14.826Z,4.00
2018-06-03T02:04:14.819Z,4.00
2018-06-03T02:05:14.811Z,4.00
2018-06-03T02:06:14.807Z,4.00
2018-06-03T02:07:14.795Z,4.00
2018-06-03T02:08:14.788Z,4.00
2018-06-03T02:09:14.780Z,4.00
2018-06-03T02:10:14.772Z,4.00
2018-06-03T02:11:14.764Z,4.00
2018-06-03T02:12:14.757Z,4.00
2018-06-03T02:13:14.748Z,4.00
2018-06-03T02:14:14.740Z,4.00
2018-06-03T02:15:14.732Z,4.00
2018-06-03T02:16:14.725Z,4.00
2018-06-03T02:17:14.716Z,4.00
2018-06-03T02:18:14.707Z,4.00
2018-06-03T02:19:14.701Z,4.00
2018-06-03T02:20:14.693Z,4.00
2018-06-03T02:21:14.685Z,4.00
2018-06-03T02:22:14.692Z,4.00
2018-06-03T02:23:14.670Z,4.00
2018-06-03T02:24:14.661Z,4.00
2018-06-03T02:25:14.653Z,4.00
2018-06-03T02:26:14.644Z,4.00
2018-06-03T02:27:14.637Z,4.00
2018-06-03T02:28:14.631Z,4.00
2018-06-03T02:29:14.623Z,4.00
2018-06-03T02:30:14.615Z,4.00
2018-06-03T02:31:14.607Z,4.00
2018-06-03T02:32:14.599Z,4.00
2018-06-03T02:33:14.592Z,4.00
2018-06-03T02:34:14.582Z,4.00
2018-06-03T02:35:14.575Z,4.00
2018-06-03T02:36:14.568Z,4.00
2018-06-03T02:37:14.562Z,4.00
2018-06-03T02:38:14.556Z,4.00
2018-06-03T02:39:14.542Z,4.00
2018-06-03T02:40:14.539Z,4.00
2018-06-03T02:41:14.528Z,4.00
2018-06-03T02:42:14.519Z,4.00
2018-06-03T02:43:14.511Z,4.00
2018-06-03T02:44:14.503Z,4.00
2018-06-03T02:45:14.496Z,4.00
2018-06-03T02:46:14.487Z,4.00
2018-06-03T02:47:14.480Z,4.00
2018-06-03T02:48:14.475Z,4.00
2018-06-03T02:49:14.465Z,4.00
2018-06-03T02:50:14.456Z,4.00
2018-06-03T02:51:14.448Z,4.00
2018-06-03T02:52:14.440Z,4.00
2018-06-03T02:53:14.432Z,4.00
2018-06-03T02:54:14.423Z,4.00
2018-06-03T02:55:14.424Z,4.00
2018-06-03T02:56:14.406Z,4.00
2018-06-03T02:57:14.398Z,4.00
2018-06-03T02:58:14.391Z,4.00
2018-06-03T02:59:14.383Z,4.00
2018-06-03T03:00:14.380Z,4.00
2018-06-03T03:01:14.368Z,4.00
2018-06-03T03:02:14.359Z,4.00
2018-06-03T03:03:14.351Z,4.00
2018-06-03T03:04:14.343Z,4.00
2018-06-03T03:05:14.336Z,4.00
2018-06-03T03:06:14.326Z,4.00
2018-06-03T03:07:14.318Z,4.00
2018-06-03T03:08:14.310Z,4.00
2018-06-03T03:09:14.302Z,4.00
2018-06-03T03:10:14.294Z,4.00
2018-06-03T03:11:14.285Z,4.00
2018-06-03T03:12:14.278Z,4.00
2018-06-03T03:13:14.270Z,4.00
2018-06-03T03:14:14.265Z,4.00
2018-06-03T03:15:14.254Z,4.00
2018-06-03T03:16:14.246Z,4.00
2018-06-03T03:17:14.237Z,4.00
2018-06-03T03:18:14.227Z,4.00
2018-06-03T03:19:14.222Z,4.00
2018-06-03T03:20:14.224Z,4.00
2018-06-03T03:21:14.204Z,4.00
2018-06-03T03:22:14.196Z,4.00
2018-06-03T03:23:14.188Z,4.00
2018-06-03T03:24:14.184Z,4.00
2018-06-03T03:25:14.174Z,4.00
2018-06-03T03:26:14.165Z,4.00
2018-06-03T03:27:14.156Z,4.00
2018-06-03T03:28:14.149Z,4.00
2018-06-03T03:29:14.141Z,4.00
2018-06-03T03:30:14.133Z,4.00
2018-06-03T03:31:14.125Z,4.00
2018-06-03T03:32:14.117Z,4.00
2018-06-03T03:33:14.108Z,4.00
2018-06-03T03:34:14.101Z,4.00
2018-06-03T03:35:14.094Z,4.00
2018-06-03T03:36:14.085Z,4.00
2018-06-03T03:37:14.082Z,4.00
2018-06-03T03:38:14.072Z,4.00
2018-06-03T03:39:14.061Z,4.00
2018-06-03T03:40:14.052Z,4.00
2018-06-03T03:41:14.044Z,4.00
2018-06-03T03:42:14.036Z,4.00
2018-06-03T03:43:14.029Z,4.00
2018-06-03T03:44:14.020Z,4.00
2018-06-03T03:45:14.015Z,4.00
2018-06-03T03:46:14.203Z,4.00
2018-06-03T03:47:13.996Z,4.00
2018-06-03T03:48:13.988Z,4.00
2018-06-03T03:49:13.980Z,4.00
2018-06-03T03:50:13.972Z,4.00
2018-06-03T03:51:13.963Z,4.00
2018-06-03T03:52:13.955Z,4.00
2018-06-03T03:53:13.948Z,4.00
2018-06-03T03:54:13.939Z,4.00
2018-06-03T03:55:13.931Z,4.00
2018-06-03T03:56:13.923Z,4.00
2018-06-03T03:57:13.915Z,4.00
2018-06-03T03:58:13.905Z,4.00
2018-06-03T03:59:13.900Z,4.00
2018-06-03T04:00:13.892Z,4.00
2018-06-03T04:01:13.883Z,4.00
2018-06-03T04:02:13.874Z,4.00
2018-06-03T04:03:13.866Z,4.00
2018-06-03T04:04:13.858Z,4.00
2018-06-03T04:05:13.849Z,4.00
2018-06-03T04:06:13.840Z,4.00
2018-06-03T04:07:13.834Z,4.00
2018-06-03T04:08:13.829Z,4.00
2018-06-03T04:09:13.817Z,4.00
2018-06-03T04:10:13.810Z,4.00
2018-06-03T04:11:13.800Z,4.00
2018-06-03T04:12:13.792Z,4.00
2018-06-03T04:13:13.788Z,4.00
2018-06-03T04:14:13.775Z,4.00
2018-06-03T04:15:13.769Z,4.00
2018-06-03T04:16:13.759Z,4.00
2018-06-03T04:17:13.752Z,4.00
2018-06-03T04:18:13.742Z,4.00
2018-06-03T04:19:13.734Z,4.00
2018-06-03T04:20:13.726Z,4.00
2018-06-03T04:21:13.719Z,4.00
2018-06-03T04:22:13.708Z,4.00
2018-06-03T04:23:13.702Z,4.00
2018-06-03T04:24:13.693Z,4.00
2018-06-03T04:25:13.684Z,4.00
2018-06-03T04:26:13.675Z,4.00
2018-06-03T04:27:13.667Z,4.00
2018-06-03T04:28:13.659Z,4.00
2018-06-03T04:29:13.649Z,4.00
2018-06-03T04:30:13.641Z,4.00
2018-06-03T04:31:13.633Z,4.00
2018-06-03T04:32:13.625Z,4.00
2018-06-03T04:33:13.616Z,4.00
2018-06-03T04:34:13.609Z,4.00
2018-06-03T04:35:13.602Z,4.00
2018-06-03T04:36:13.590Z,4.00
2018-06-03T04:37:13.582Z,4.00
2018-06-03T04:38:13.571Z,4.00
2018-06-03T04:39:13.565Z,4.00
2018-06-03T04:40:13.562Z,4.00
2018-06-03T04:41:13.550Z,4.00
2018-06-03T04:42:13.541Z,4.00
2018-06-03T04:43:13.567Z,4.00
2018-06-03T04:44:13.522Z,4.00
2018-06-03T04:45:13.514Z,4.00
2018-06-03T04:46:13.504Z,4.00
2018-06-03T04:47:13.496Z,4.00
2018-06-03T04:48:13.487Z,4.00
2018-06-03T04:49:13.479Z,4.00
2018-06-03T04:50:13.470Z,4.00
2018-06-03T04:51:13.461Z,4.00
2018-06-03T04:52:13.453Z,4.00
2018-06-03T04:53:13.448Z,4.00
2018-06-03T04:54:13.435Z,4.00
2018-06-03T04:55:13.430Z,4.00
2018-06-03T04:56:13.418Z,4.00
2018-06-03T04:57:13.410Z,4.00
2018-06-03T04:58:13.401Z,4.00
2018-06-03T04:59:13.392Z,4.00
2018-06-03T05:00:13.384Z,4.00
2018-06-03T05:01:13.375Z,4.00
2018-06-03T05:02:13.365Z,4.00
2018-06-03T05:03:13.356Z,4.00
2018-06-03T05:04:13.348Z,4.00
2018-06-03T05:05:13.339Z,4.00
2018-06-03T05:06:13.327Z,4.00
2018-06-03T05:07:13.320Z,4.00
2018-06-03T05:08:13.312Z,4.00
2018-06-03T05:09:13.303Z,4.00
2018-06-03T05:10:13.293Z,4.00
2018-06-03T05:11:13.285Z,4.00
2018-06-03T05:12:13.276Z,4.00
2018-06-03T05:13:13.267Z,4.00
2018-06-03T05:14:13.257Z,4.00
2018-06-03T05:15:13.248Z,4.00
2018-06-03T05:16:13.241Z,4.00
2018-06-03T05:17:13.232Z,4.00
2018-06-03T05:18:13.222Z,4.00
2018-06-03T05:19:13.214Z,4.00
2018-06-03T05:20:13.205Z,4.00
2018-06-03T05:21:13.200Z,4.00
2018-06-03T05:22:13.187Z,4.00
2018-06-03T05:23:13.178Z,4.00
2018-06-03T05:24:13.171Z,4.00
2018-06-03T05:25:13.161Z,4.00
2018-06-03T05:26:13.152Z,4.00
2018-06-03T05:27:13.144Z,4.00
2018-06-03T05:28:13.136Z,4.00
2018-06-03T05:29:13.127Z,4.00
2018-06-03T05:30:13.118Z,4.00
2018-06-03T05:31:13.108Z,4.00
2018-06-03T05:32:13.101Z,4.00
2018-06-03T05:33:13.096Z,4.00
2018-06-03T05:34:13.083Z,4.00
2018-06-03T05:35:13.075Z,4.00
2018-06-03T05:36:13.068Z,4.00
2018-06-03T05:37:13.057Z,4.00
2018-06-03T05:38:13.051Z,4.00
2018-06-03T05:39:13.040Z,4.00
2018-06-03T05:40:13.035Z,4.00
2018-06-03T05:41:13.024Z,4.00
2018-06-03T05:42:13.013Z,4.00
2018-06-03T05:43:13.006Z,4.00
2018-06-03T05:44:13.001Z,4.00
2018-06-03T05:45:12.989Z,4.00
2018-06-03T05:46:13.180Z,4.00
2018-06-03T05:47:12.970Z,4.00
2018-06-03T05:48:12.963Z,4.00
2018-06-03T05:49:12.955Z,4.00
2018-06-03T05:50:12.946Z,4.00
2018-06-03T05:51:12.940Z,4.00
2018-06-03T05:52:13.129Z,4.00
2018-06-03T05:53:12.920Z,4.00
2018-06-03T05:54:12.911Z,4.00
2018-06-03T05:55:12.903Z,4.00
2018-06-03T05:56:12.895Z,4.00
2018-06-03T05:57:12.886Z,4.00
2018-06-03T05:58:12.877Z,4.00
2018-06-03T05:59:12.867Z,4.00
2018-06-03T06:00:12.858Z,4.00
2018-06-03T06:01:12.852Z,4.00
2018-06-03T06:02:12.842Z,4.00
2018-06-03T06:03:12.833Z,4.00
2018-06-03T06:04:13.025Z,4.00
2018-06-03T06:05:12.815Z,4.00
2018-06-03T06:06:12.808Z,4.00
2018-06-03T06:07:12.799Z,4.00
2018-06-03T06:08:12.791Z,4.00
2018-06-03T06:09:12.782Z,4.00
2018-06-03T06:10:12.773Z,4.00
2018-06-03T06:11:12.764Z,4.00
2018-06-03T06:12:12.755Z,4.00
2018-06-03T06:13:12.749Z,4.00
2018-06-03T06:14:12.738Z,4.00
2018-06-03T06:15:12.730Z,4.00
2018-06-03T06:16:12.923Z,4.00
2018-06-03T06:17:12.713Z,4.00
2018-06-03T06:18:12.704Z,4.00
2018-06-03T06:19:12.695Z,4.00
2018-06-03T06:20:12.695Z,4.00
2018-06-03T06:21:12.679Z,4.00
2018-06-03T06:22:12.668Z,4.00
2018-06-03T06:23:12.659Z,4.00
2018-06-03T06:24:12.655Z,4.00
2018-06-03T06:25:12.643Z,4.00
2018-06-03T06:26:12.633Z,4.00
2018-06-03T06:27:12.625Z,4.00
2018-06-03T06:28:12.616Z,4.00
2018-06-03T06:29:12.606Z,4.00
2018-06-03T06:30:12.597Z,4.00
2018-06-03T06:31:12.586Z,4.00
2018-06-03T06:32:12.578Z,4.00
2018-06-03T06:33:12.568Z,4.00
2018-06-03T06:34:12.560Z,4.00
2018-06-03T06:35:12.551Z,4.00
2018-06-03T06:36:12.543Z,4.00
2018-06-03T06:37:12.535Z,4.00
2018-06-03T06:38:12.525Z,4.00
2018-06-03T06:39:12.520Z,4.00
2018-06-03T06:40:12.513Z,4.00
2018-06-03T06:41:12.500Z,4.00
2018-06-03T06:42:12.490Z,4.00
2018-06-03T06:43:12.482Z,4.00
2018-06-03T06:44:12.473Z,4.00
2018-06-03T06:45:12.464Z,4.00
2018-06-03T06:46:12.456Z,4.00
2018-06-03T06:47:12.448Z,4.00
2018-06-03T06:48:12.439Z,4.00
2018-06-03T06:49:12.431Z,4.00
2018-06-03T06:50:12.422Z,4.00
2018-06-03T06:51:12.413Z,4.00
2018-06-03T06:52:12.613Z,4.00
2018-06-03T06:53:12.397Z,4.00
2018-06-03T06:54:12.390Z,4.00
2018-06-03T06:55:12.382Z,4.00
2018-06-03T06:56:12.370Z,4.00
2018-06-03T06:57:12.363Z,4.00
2018-06-03T06:58:12.353Z,4.00
2018-06-03T06:59:12.343Z,4.00
2018-06-03T07:00:12.388Z,4.00
2018-06-03T07:01:12.327Z,4.00
2018-06-03T07:02:12.321Z,4.00
2018-06-03T07:03:12.310Z,4.00
2018-06-03T07:04:12.304Z,4.00
2018-06-03T07:05:12.295Z,4.00
2018-06-03T07:06:12.286Z,4.00
2018-06-03T07:07:12.278Z,4.00
2018-06-03T07:08:12.270Z,4.00
2018-06-03T07:09:12.260Z,4.00
2018-06-03T07:10:12.252Z,4.00
2018-06-03T07:11:12.243Z,4.00
2018-06-03T07:12:12.237Z,4.00
2018-06-03T07:13:12.270Z,4.00
2018-06-03T07:14:12.218Z,4.00
2018-06-03T07:15:12.210Z,4.00
2018-06-03T07:16:12.201Z,4.00
2018-06-03T07:17:12.191Z,4.00
2018-06-03T07:18:12.184Z,4.00
2018-06-03T07:19:12.175Z,4.00
2018-06-03T07:20:12.167Z,4.00
2018-06-03T07:21:12.159Z,4.00
2018-06-03T07:22:12.148Z,4.00
2018-06-03T07:23:12.190Z,4.00
2018-06-03T07:24:12.137Z,4.00
2018-06-03T07:25:12.129Z,4.00
2018-06-03T07:26:12.115Z,4.00
2018-06-03T07:27:12.106Z,4.00
2018-06-03T07:28:12.297Z,4.00
2018-06-03T07:29:12.090Z,4.00
2018-06-03T07:30:12.080Z,4.00
2018-06-03T07:31:12.072Z,4.00
2018-06-03T07:32:12.064Z,4.00
2018-06-03T07:33:12.061Z,4.00
2018-06-03T07:34:12.045Z,4.00
2018-06-03T07:35:12.037Z,4.00
2018-06-03T07:36:12.029Z,4.00
2018-06-03T07:37:12.020Z,4.00
2018-06-03T07:38:12.037Z,4.00
2018-06-03T07:39:12.002Z,4.00
2018-06-03T07:40:11.994Z,4.00
2018-06-03T07:41:11.986Z,4.00
2018-06-03T07:42:11.975Z,4.00
2018-06-03T07:43:11.968Z,4.00
2018-06-03T07:44:11.959Z,4.00
2018-06-03T07:45:11.959Z,4.00
2018-06-03T07:46:11.943Z,4.00
2018-06-03T07:47:11.933Z,4.00
2018-06-03T07:48:11.925Z,4.00
2018-06-03T07:49:11.915Z,4.00
2018-06-03T07:50:11.907Z,4.00
2018-06-03T07:51:11.898Z,4.00
2018-06-03T07:52:11.890Z,4.00
2018-06-03T07:53:11.885Z,4.00
2018-06-03T07:54:11.870Z,4.00
2018-06-03T07:55:11.864Z,4.00
2018-06-03T07:56:11.852Z,4.00
2018-06-03T07:57:11.843Z,4.00
2018-06-03T07:58:12.033Z,4.00
2018-06-03T07:59:11.825Z,4.00
2018-06-03T08:00:11.814Z,4.00
2018-06-03T08:01:11.805Z,4.00
2018-06-03T08:02:11.795Z,4.00
2018-06-03T08:03:11.787Z,4.00
2018-06-03T08:04:11.778Z,4.00
2018-06-03T08:05:11.776Z,4.00
2018-06-03T08:06:11.763Z,4.00
2018-06-03T08:07:11.751Z,4.00
2018-06-03T08:08:11.746Z,4.00
2018-06-03T08:09:11.734Z,4.00
2018-06-03T08:10:11.723Z,4.00
2018-06-03T08:11:11.715Z,4.00
2018-06-03T08:12:11.706Z,4.00
2018-06-03T08:13:11.698Z,4.00
2018-06-03T08:14:11.688Z,4.00
2018-06-03T08:15:11.679Z,4.00
2018-06-03T08:16:11.875Z,4.00
2018-06-03T08:17:11.660Z,4.00
2018-06-03T08:18:11.652Z,4.00
2018-06-03T08:19:11.643Z,4.00
2018-06-03T08:20:11.635Z,4.00
2018-06-03T08:21:11.636Z,4.00
2018-06-03T08:22:11.821Z,4.00
2018-06-03T08:23:11.605Z,4.00
2018-06-03T08:24:11.601Z,4.00
2018-06-03T08:25:11.589Z,4.00
2018-06-03T08:26:11.580Z,4.00
2018-06-03T08:27:11.569Z,4.00
2018-06-03T08:28:11.561Z,4.00
2018-06-03T08:29:11.551Z,4.00
2018-06-03T08:30:11.542Z,4.00
2018-06-03T08:31:11.532Z,4.00
2018-06-03T08:32:11.526Z,4.00
2018-06-03T08:33:11.513Z,4.00
2018-06-03T08:34:11.504Z,4.00
2018-06-03T08:35:11.496Z,4.00
2018-06-03T08:36:11.486Z,4.00
2018-06-03T08:37:11.478Z,4.00
2018-06-03T08:38:11.466Z,4.00
2018-06-03T08:39:11.508Z,4.00
2018-06-03T08:40:11.450Z,4.00
2018-06-03T08:41:11.441Z,4.00
2018-06-03T08:42:11.430Z,4.00
2018-06-03T08:43:11.424Z,4.00
2018-06-03T08:44:11.413Z,4.00
2018-06-03T08:45:11.404Z,4.00
2018-06-03T08:46:11.393Z,4.00
2018-06-03T08:47:11.385Z,4.00
2018-06-03T08:48:11.375Z,4.00
2018-06-03T08:49:11.370Z,4.00
2018-06-03T08:50:11.358Z,4.00
2018-06-03T08:51:11.348Z,4.00
2018-06-03T08:52:11.594Z,4.00
2018-06-03T08:53:11.330Z,4.00
2018-06-03T08:54:11.320Z,4.00
2018-06-03T08:55:11.311Z,4.00
2018-06-03T08:56:11.302Z,4.00
2018-06-03T08:57:11.296Z,4.00
2018-06-03T08:58:11.282Z,4.00
2018-06-03T08:59:11.271Z,4.00
2018-06-03T09:00:11.263Z,4.00
2018-06-03T09:01:11.254Z,4.00
2018-06-03T09:02:11.245Z,4.00
2018-06-03T09:03:11.235Z,4.00
2018-06-03T09:04:11.225Z,4.00
2018-06-03T09:05:11.215Z,4.00
2018-06-03T09:06:11.205Z,4.00
2018-06-03T09:07:11.195Z,4.00
2018-06-03T09:08:11.186Z,4.00
2018-06-03T09:09:11.177Z,4.00
2018-06-03T09:10:11.166Z,4.00
2018-06-03T09:11:11.157Z,4.00
2018-06-03T09:12:11.147Z,4.00
2018-06-03T09:13:11.153Z,4.00
2018-06-03T09:14:11.125Z,4.00
2018-06-03T09:15:11.117Z,4.00
2018-06-03T09:16:11.308Z,4.00
2018-06-03T09:17:11.098Z,4.00
2018-06-03T09:18:11.086Z,4.00
2018-06-03T09:19:11.078Z,4.00
2018-06-03T09:20:11.071Z,4.00
2018-06-03T09:21:11.109Z,4.00
2018-06-03T09:22:11.047Z,4.00
2018-06-03T09:23:11.038Z,4.00
2018-06-03T09:24:11.028Z,4.00
2018-06-03T09:25:11.069Z,4.00
2018-06-03T09:26:11.009Z,4.00
2018-06-03T09:27:11.003Z,4.00
2018-06-03T09:28:11.189Z,4.00
2018-06-03T09:29:10.981Z,4.00
2018-06-03T09:30:10.970Z,4.00
2018-06-03T09:31:10.961Z,4.00
2018-06-03T09:32:10.951Z,4.00
2018-06-03T09:33:10.942Z,4.00
2018-06-03T09:34:10.936Z,4.00
2018-06-03T09:35:10.921Z,8.00
2018-06-03T09:36:10.911Z,8.00
2018-06-03T09:37:10.902Z,8.00
2018-06-03T09:38:10.892Z,8.00
2018-06-03T09:39:10.882Z,8.00
2018-06-03T09:40:10.871Z,8.00
2018-06-03T09:41:10.862Z,8.00
2018-06-03T09:42:10.851Z,8.00
2018-06-03T09:43:10.842Z,8.00
2018-06-03T09:44:10.833Z,8.00
2018-06-03T09:45:10.823Z,8.00
2018-06-03T09:46:10.812Z,8.00
2018-06-03T09:47:10.804Z,8.00
2018-06-03T09:48:10.793Z,8.00
2018-06-03T09:49:10.784Z,12.00
2018-06-03T09:50:10.773Z,8.00
2018-06-03T09:51:10.767Z,12.00
2018-06-03T09:52:10.753Z,8.00
2018-06-03T09:53:10.776Z,12.00
2018-06-03T09:54:10.735Z,12.00
2018-06-03T09:55:10.723Z,12.00
2018-06-03T09:56:10.714Z,16.00
2018-06-03T09:57:10.702Z,12.00
2018-06-03T09:58:10.691Z,8.00
2018-06-03T09:59:10.683Z,12.00
2018-06-03T10:00:10.674Z,12.00
2018-06-03T10:01:10.664Z,16.00
2018-06-03T10:02:10.653Z,12.00
2018-06-03T10:03:10.646Z,12.00
2018-06-03T10:04:10.632Z,16.00
2018-06-03T10:05:10.623Z,16.00
2018-06-03T10:06:10.611Z,12.00
2018-06-03T10:07:10.602Z,12.00
2018-06-03T10:08:10.592Z,12.00
2018-06-03T10:09:10.583Z,12.00
2018-06-03T10:10:10.580Z,16.00
2018-06-03T10:11:10.561Z,20.00
2018-06-03T10:12:10.551Z,16.00
2018-06-03T10:13:10.542Z,20.00
2018-06-03T10:14:10.531Z,20.00
2018-06-03T10:15:10.521Z,16.00
2018-06-03T10:16:10.619Z,20.00
2018-06-03T10:17:10.500Z,24.00
2018-06-03T10:18:10.491Z,20.00
2018-06-03T10:19:10.480Z,20.00
2018-06-03T10:20:10.471Z,20.00
2018-06-03T10:21:10.465Z,24.00
2018-06-03T10:22:10.450Z,24.00
2018-06-03T10:23:10.438Z,24.00
2018-06-03T10:24:10.429Z,20.00
2018-06-03T10:25:10.419Z,20.00
2018-06-03T10:26:10.409Z,20.00
2018-06-03T10:27:10.399Z,24.00
2018-06-03T10:28:10.389Z,28.00
2018-06-03T10:29:10.385Z,36.00
2018-06-03T10:30:10.368Z,36.00
2018-06-03T10:31:10.357Z,40.00
2018-06-03T10:32:10.346Z,40.00
2018-06-03T10:33:10.337Z,40.00
2018-06-03T10:34:10.329Z,40.00
2018-06-03T10:35:10.316Z,36.00
2018-06-03T10:36:10.306Z,36.00
2018-06-03T10:37:10.296Z,36.00
2018-06-03T10:38:10.286Z,40.00
2018-06-03T10:39:10.276Z,40.00
2018-06-03T10:40:10.265Z,40.00
2018-06-03T10:41:10.255Z,48.00
2018-06-03T10:42:10.244Z,52.00
2018-06-03T10:43:10.234Z,52.00
2018-06-03T10:44:10.225Z,52.00
2018-06-03T10:45:10.214Z,56.00
2018-06-03T10:46:10.204Z,60.00
2018-06-03T10:47:10.192Z,60.00
2018-06-03T10:48:10.183Z,56.00
2018-06-03T10:49:10.173Z,64.00
2018-06-03T10:50:10.163Z,60.00
2018-06-03T10:51:10.153Z,60.00
2018-06-03T10:52:10.142Z,56.00
2018-06-03T10:53:10.132Z,60.00
2018-06-03T10:54:10.119Z,64.00
2018-06-03T10:55:10.110Z,64.00
2018-06-03T10:56:10.100Z,68.00
2018-06-03T10:57:10.091Z,60.00
2018-06-03T10:58:10.080Z,68.00
2018-06-03T10:59:10.069Z,72.00
2018-06-03T11:00:10.060Z,76.00
2018-06-03T11:01:10.048Z,80.00
2018-06-03T11:02:10.038Z,68.00
2018-06-03T11:03:10.027Z,68.00
2018-06-03T11:04:10.017Z,72.00
2018-06-03T11:05:10.007Z,72.00
2018-06-03T11:06:09.997Z,76.00
2018-06-03T11:07:09.987Z,84.00
2018-06-03T11:08:09.977Z,80.00
2018-06-03T11:09:09.966Z,80.00
2018-06-03T11:10:09.956Z,76.00
2018-06-03T11:11:09.947Z,72.00
2018-06-03T11:12:09.936Z,72.00
2018-06-03T11:13:09.927Z,84.00
2018-06-03T11:14:09.915Z,96.00
2018-06-03T11:15:09.905Z,108.00
2018-06-03T11:16:10.206Z,120.00
2018-06-03T11:17:09.885Z,132.00
2018-06-03T11:18:09.877Z,152.00
2018-06-03T11:19:09.864Z,164.00
2018-06-03T11:20:09.855Z,176.00
2018-06-03T11:21:09.845Z,192.00
2018-06-03T11:22:09.832Z,200.00
2018-06-03T11:23:09.824Z,212.00
2018-06-03T11:24:09.814Z,208.00
2018-06-03T11:25:09.810Z,200.00
2018-06-03T11:26:09.792Z,192.00
2018-06-03T11:27:09.791Z,184.00
2018-06-03T11:28:09.772Z,184.00
2018-06-03T11:29:09.763Z,172.00
2018-06-03T11:30:09.751Z,160.00
2018-06-03T11:31:09.741Z,144.00
2018-06-03T11:32:09.731Z,148.00
2018-06-03T11:33:09.720Z,156.00
2018-06-03T11:34:09.710Z,160.00
2018-06-03T11:35:09.699Z,176.00
2018-06-03T11:36:09.688Z,204.00
2018-06-03T11:37:09.678Z,200.00
2018-06-03T11:38:09.668Z,208.00
2018-06-03T11:39:09.657Z,204.00
2018-06-03T11:40:09.649Z,188.00
2018-06-03T11:41:09.638Z,188.00
2018-06-03T11:42:09.629Z,168.00
2018-06-03T11:43:09.618Z,152.00
2018-06-03T11:44:09.608Z,172.00
2018-06-03T11:45:09.597Z,180.00
2018-06-03T11:46:09.585Z,176.00
2018-06-03T11:47:09.575Z,196.00
2018-06-03T11:48:09.571Z,204.00
2018-06-03T11:49:09.557Z,196.00
2018-06-03T11:50:09.545Z,200.00
2018-06-03T11:51:09.535Z,200.00
2018-06-03T11:52:09.524Z,212.00
2018-06-03T11:53:09.514Z,220.00
2018-06-03T11:54:09.503Z,236.00
2018-06-03T11:55:09.493Z,264.00
2018-06-03T11:56:09.482Z,300.00
2018-06-03T11:57:09.473Z,344.00
2018-06-03T11:58:09.471Z,388.00
2018-06-03T11:59:09.481Z,392.00
2018-06-03T12:00:09.444Z,384.00
2018-06-03T12:01:09.432Z,348.00
2018-06-03T12:02:09.421Z,292.00
2018-06-03T12:03:09.412Z,244.00
2018-06-03T12:04:09.401Z,196.00
2018-06-03T12:05:09.392Z,180.00
2018-06-03T12:06:09.380Z,196.00
2018-06-03T12:07:09.371Z,228.00
2018-06-03T12:08:09.413Z,236.00
2018-06-03T12:09:09.355Z,236.00
2018-06-03T12:10:09.340Z,240.00
2018-06-03T12:11:09.331Z,252.00
2018-06-03T12:12:09.321Z,220.00
2018-06-03T12:13:09.312Z,188.00
2018-06-03T12:14:09.301Z,176.00
2018-06-03T12:15:09.292Z,180.00
2018-06-03T12:16:09.281Z,192.00
2018-06-03T12:17:09.271Z,192.00
2018-06-03T12:18:09.262Z,184.00
2018-06-03T12:19:09.250Z,172.00
2018-06-03T12:20:09.240Z,168.00
2018-06-03T12:21:09.235Z,188.00
2018-06-03T12:22:09.469Z,192.00
2018-06-03T12:23:09.209Z,176.00
2018-06-03T12:24:09.203Z,160.00
2018-06-03T12:25:09.190Z,160.00
2018-06-03T12:26:09.178Z,176.00
2018-06-03T12:27:09.168Z,192.00
2018-06-03T12:28:09.159Z,204.00
2018-06-03T12:29:09.151Z,216.00
2018-06-03T12:30:09.138Z,224.00
2018-06-03T12:31:09.130Z,228.00
2018-06-03T12:32:09.119Z,224.00
2018-06-03T12:33:09.109Z,208.00
2018-06-03T12:34:09.098Z,188.00
2018-06-03T12:35:09.086Z,168.00
2018-06-03T12:36:09.080Z,192.00
2018-06-03T12:37:09.070Z,248.00
2018-06-03T12:38:09.058Z,288.00
2018-06-03T12:39:09.047Z,288.00
2018-06-03T12:40:09.037Z,288.00
2018-06-03T12:41:09.032Z,308.00
2018-06-03T12:42:09.015Z,340.00
2018-06-03T12:43:09.007Z,352.00
2018-06-03T12:44:08.997Z,376.00
2018-06-03T12:45:08.990Z,380.00
2018-06-03T12:46:08.976Z,380.00
2018-06-03T12:47:08.972Z,368.00
2018-06-03T12:48:08.956Z,388.00
2018-06-03T12:49:08.945Z,372.00
2018-06-03T12:50:08.935Z,316.00
2018-06-03T12:51:08.925Z,292.00
2018-06-03T12:52:09.115Z,252.00
2018-06-03T12:53:08.905Z,204.00
2018-06-03T12:54:08.899Z,216.00
2018-06-03T12:55:08.884Z,256.00
2018-06-03T12:56:08.872Z,284.00
2018-06-03T12:57:08.864Z,256.00
2018-06-03T12:58:08.852Z,244.00
2018-06-03T12:59:08.842Z,228.00
2018-06-03T13:00:08.831Z,216.00
2018-06-03T13:01:08.822Z,240.00
2018-06-03T13:02:08.815Z,232.00
2018-06-03T13:03:08.853Z,216.00
2018-06-03T13:04:08.793Z,220.00
2018-06-03T13:05:08.781Z,264.00
2018-06-03T13:06:08.773Z,244.00
2018-06-03T13:07:08.761Z,256.00
2018-06-03T13:08:08.750Z,292.00